Time;durP1;ratioP1;P1;durP2;ratioP2;P2;SDS_P1;SDS_P2;PMS_P1;PMS_P2;Temp;Humidity;BMP_temperature;BMP_pressure;BME280_temperature;BME280_humidity;BME280_pressure;Samples;Min_cycle;Max_cycle;Signal;HPM_P1;HPM_P2
2023/08/06 00:01:47;;;;;;;3.60;2.60;;;;;;;;;;5092259;28;20456;-78
2023/08/06 00:04:12;;;;;;;2.88;2.30;;;;;;;;;;5086109;28;20363;-78
2023/08/06 00:06:37;;;;;;;3.20;2.25;;;;;;;;;;5088571;28;20096;-78
2023/08/06 00:09:03;;;;;;;3.45;2.40;;;;;;;;;;5094555;28;20032;-77
2023/08/06 00:11:28;;;;;;;5.43;2.45;;;;;;;;;;5092663;27;20023;-77
2023/08/06 00:13:53;;;;;;;2.30;2.10;;;;;;;;;;5101326;27;20035;-79
2023/08/06 00:16:19;;;;;;;2.58;2.38;;;;;;;;;;5100636;28;20114;-77
2023/08/06 00:18:44;;;;;;;4.07;2.47;;;;;;;;;;5090666;28;20066;-77
2023/08/06 00:21:09;;;;;;;3.65;2.45;;;;;;;;;;5089856;28;20521;-78
2023/08/06 00:23:35;;;;;;;2.50;2.20;;;;;;;;;;5099184;28;20111;-78
2023/08/06 00:26:00;;;;;;;2.58;2.33;;;;;;;;;;5090693;28;20023;-78
2023/08/06 00:28:25;;;;;;;4.45;2.67;;;;;;;;;;5088352;28;20039;-77
2023/08/06 00:30:57;;;;;;;2.60;2.40;;;;;;;;;;5088278;28;20032;-78
2023/08/06 00:33:23;;;;;;;3.65;2.70;;;;;;;;;;5094372;28;20023;-78
2023/08/06 00:35:48;;;;;;;4.18;2.53;;;;;;;;;;5091386;27;20431;-77
2023/08/06 00:38:13;;;;;;;2.42;2.22;;;;;;;;;;5096562;27;20054;-77
2023/08/06 00:40:39;;;;;;;3.20;2.50;;;;;;;;;;5101316;28;20024;-76
2023/08/06 00:43:04;;;;;;;2.78;2.58;;;;;;;;;;5092197;27;20047;-78
2023/08/06 00:45:30;;;;;;;3.33;2.58;;;;;;;;;;5093535;28;20443;-77
2023/08/06 00:47:55;;;;;;;2.78;2.58;;;;;;;;;;5097898;28;20051;-78
2023/08/06 00:50:22;;;;;;;2.50;2.30;;;;;;;;;;5101500;28;20538;-78
2023/08/06 00:52:48;;;;;;;5.18;2.60;;;;;;;;;;5097259;28;20027;-78
2023/08/06 00:55:13;;;;;;;3.20;2.50;;;;;;;;;;5088469;28;20459;-78
2023/08/06 00:57:39;;;;;;;2.00;1.90;;;;;;;;;;5093642;28;20024;-78
2023/08/06 01:00:04;;;;;;;3.55;2.35;;;;;;;;;;5089403;27;20032;-77
2023/08/06 01:02:30;;;;;;;4.20;2.30;;;;;;;;;;5094152;28;20295;-77
2023/08/06 01:04:55;;;;;;;2.88;2.42;;;;;;;;;;5096121;27;20123;-79
2023/08/06 01:07:25;;;;;;;3.65;2.20;;;;;;;;;;5098811;28;20057;-78
2023/08/06 01:09:54;;;;;;;3.55;2.60;;;;;;;;;;5096246;28;20032;-77
2023/08/06 01:12:34;;;;;;;3.08;2.58;;;;;;;;;;5097209;27;20031;-78
2023/08/06 01:15:07;;;;;;;2.28;2.05;;;;;;;;;;5092916;27;20051;-78
2023/08/06 01:17:33;;;;;;;2.40;2.20;;;;;;;;;;5097559;28;20020;-77
2023/08/06 01:19:59;;;;;;;3.40;2.83;;;;;;;;;;5087350;28;20016;-77
2023/08/06 01:22:24;;;;;;;2.90;2.67;;;;;;;;;;5098016;28;20046;-77
2023/08/06 01:24:50;;;;;;;3.80;2.40;;;;;;;;;;5091113;28;20043;-78
2023/08/06 01:27:18;;;;;;;4.82;2.28;;;;;;;;;;5092107;28;20016;-77
2023/08/06 01:29:46;;;;;;;5.57;2.58;;;;;;;;;;5086348;27;20338;-78
2023/08/06 01:32:13;;;;;;;2.55;2.35;;;;;;;;;;5092300;28;20443;-78
2023/08/06 01:34:40;;;;;;;2.55;2.35;;;;;;;;;;5090493;28;20449;-76
2023/08/06 01:37:06;;;;;;;2.92;2.70;;;;;;;;;;5094408;28;20035;-77
2023/08/06 01:39:33;;;;;;;3.67;2.72;;;;;;;;;;5090447;28;20104;-76
2023/08/06 01:41:58;;;;;;;6.30;2.70;;;;;;;;;;5094850;28;20043;-76
2023/08/06 01:44:23;;;;;;;4.45;2.72;;;;;;;;;;5088153;28;20024;-78
2023/08/06 01:46:49;;;;;;;2.78;2.58;;;;;;;;;;5095856;28;20096;-77
2023/08/06 01:49:14;;;;;;;4.50;3.08;;;;;;;;;;5099923;27;20047;-77
2023/08/06 01:51:39;;;;;;;2.60;2.40;;;;;;;;;;5096588;27;20148;-78
2023/08/06 01:54:05;;;;;;;3.28;2.63;;;;;;;;;;5090324;28;20062;-77
2023/08/06 01:56:30;;;;;;;4.10;2.30;;;;;;;;;;5089910;27;20524;-77
2023/08/06 01:58:55;;;;;;;4.30;2.50;;;;;;;;;;5087126;28;20031;-77
2023/08/06 02:01:21;;;;;;;3.55;2.63;;;;;;;;;;5095151;28;20031;-78
2023/08/06 02:03:46;;;;;;;3.40;2.50;;;;;;;;;;5098177;27;20023;-77
2023/08/06 02:06:11;;;;;;;5.10;2.85;;;;;;;;;;5096857;28;20015;-78
2023/08/06 02:08:37;;;;;;;3.40;2.67;;;;;;;;;;5097687;28;20036;-77
2023/08/06 02:11:02;;;;;;;3.10;2.63;;;;;;;;;;5098342;28;20545;-77
2023/08/06 02:13:28;;;;;;;6.72;2.55;;;;;;;;;;5085102;28;20034;-77
2023/08/06 02:15:53;;;;;;;4.68;2.35;;;;;;;;;;5093216;28;20027;-76
2023/08/06 02:18:18;;;;;;;8.43;3.03;;;;;;;;;;5092723;27;20461;-77
2023/08/06 02:20:54;;;;;;;4.18;2.30;;;;;;;;;;5095314;27;20023;-76
2023/08/06 02:23:19;;;;;;;2.95;2.70;;;;;;;;;;5095917;28;20024;-77
2023/08/06 02:25:45;;;;;;;3.30;2.90;;;;;;;;;;5096617;28;20118;-78
2023/08/06 02:28:10;;;;;;;3.03;2.55;;;;;;;;;;5089103;28;20020;-77
2023/08/06 02:30:35;;;;;;;2.40;2.20;;;;;;;;;;5083683;28;20036;-77
2023/08/06 02:33:01;;;;;;;2.42;2.22;;;;;;;;;;5096025;28;20032;-78
2023/08/06 02:35:26;;;;;;;5.07;2.70;;;;;;;;;;5082142;28;20028;-77
2023/08/06 02:37:51;;;;;;;4.05;2.70;;;;;;;;;;5098126;27;20028;-77
2023/08/06 02:40:17;;;;;;;3.83;2.70;;;;;;;;;;5096588;28;20116;-77
2023/08/06 02:42:42;;;;;;;5.13;2.60;;;;;;;;;;5094260;28;20078;-78
2023/08/06 02:45:08;;;;;;;7.78;2.40;;;;;;;;;;5083363;28;20482;-78
2023/08/06 02:47:33;;;;;;;3.70;2.40;;;;;;;;;;5089530;28;20055;-77
2023/08/06 02:49:58;;;;;;;4.10;2.38;;;;;;;;;;5094071;28;20024;-77
2023/08/06 02:52:24;;;;;;;3.70;2.38;;;;;;;;;;5096275;28;20027;-77
2023/08/06 02:54:49;;;;;;;3.53;2.10;;;;;;;;;;5086657;28;20139;-76
2023/08/06 02:57:14;;;;;;;2.63;2.42;;;;;;;;;;5088694;28;20473;-77
2023/08/06 02:59:40;;;;;;;9.25;2.42;;;;;;;;;;5088746;28;20107;-78
2023/08/06 03:02:05;;;;;;;3.35;2.33;;;;;;;;;;5089446;28;20031;-79
2023/08/06 03:04:30;;;;;;;3.45;1.80;;;;;;;;;;5088736;28;20475;-78
2023/08/06 03:06:57;;;;;;;6.47;2.20;;;;;;;;;;5092969;28;20039;-78
2023/08/06 03:09:22;;;;;;;4.35;2.10;;;;;;;;;;5090859;28;20066;-77
2023/08/06 03:11:47;;;;;;;2.08;1.95;;;;;;;;;;5093912;28;20035;-77
2023/08/06 03:14:13;;;;;;;4.80;2.08;;;;;;;;;;5088702;28;20074;-77
2023/08/06 03:16:38;;;;;;;3.80;2.00;;;;;;;;;;5091708;28;20061;-78
2023/08/06 03:19:03;;;;;;;3.65;2.15;;;;;;;;;;5093481;28;20032;-78
2023/08/06 03:21:29;;;;;;;2.65;2.03;;;;;;;;;;5089219;28;20095;-77
2023/08/06 03:23:54;;;;;;;3.53;2.45;;;;;;;;;;5098767;28;20027;-78
2023/08/06 03:26:19;;;;;;;6.32;2.15;;;;;;;;;;5094619;28;20046;-78
2023/08/06 03:28:45;;;;;;;6.53;2.88;;;;;;;;;;5089015;28;20027;-77
2023/08/06 03:31:10;;;;;;;9.65;2.40;;;;;;;;;;5088449;28;20053;-79
2023/08/06 03:33:35;;;;;;;3.08;1.98;;;;;;;;;;5091189;28;20028;-77
2023/08/06 03:36:01;;;;;;;4.50;2.10;;;;;;;;;;5093857;28;20028;-77
2023/08/06 03:38:27;;;;;;;5.18;2.10;;;;;;;;;;5087647;28;20047;-76
2023/08/06 03:40:52;;;;;;;2.25;2.05;;;;;;;;;;5096944;28;20026;-78
2023/08/06 03:43:18;;;;;;;4.32;2.50;;;;;;;;;;5096890;28;20032;-78
2023/08/06 03:45:43;;;;;;;3.83;2.20;;;;;;;;;;5096010;28;20031;-78
2023/08/06 03:48:09;;;;;;;7.22;2.65;;;;;;;;;;5097052;28;20102;-78
2023/08/06 03:50:34;;;;;;;3.63;2.55;;;;;;;;;;5089791;28;20111;-80
2023/08/06 03:53:00;;;;;;;4.72;2.35;;;;;;;;;;5097746;28;20027;-78
2023/08/06 03:55:25;;;;;;;4.43;2.47;;;;;;;;;;5093336;27;20020;-77
2023/08/06 03:57:51;;;;;;;2.30;2.00;;;;;;;;;;5099073;27;20479;-78
2023/08/06 04:00:16;;;;;;;2.35;2.10;;;;;;;;;;5089459;28;20058;-77
2023/08/06 04:02:42;;;;;;;2.20;2.05;;;;;;;;;;5098002;27;20072;-78
2023/08/06 04:05:07;;;;;;;2.83;2.15;;;;;;;;;;5096774;28;20353;-78
2023/08/06 04:07:33;;;;;;;3.30;2.40;;;;;;;;;;5091525;28;20055;-78
2023/08/06 04:09:59;;;;;;;3.20;2.53;;;;;;;;;;5096331;28;20096;-77
2023/08/06 04:12:24;;;;;;;3.50;2.00;;;;;;;;;;5099205;28;20058;-78
2023/08/06 04:14:52;;;;;;;2.80;2.00;;;;;;;;;;5097300;28;20059;-78
2023/08/06 04:17:20;;;;;;;7.10;2.53;;;;;;;;;;5090530;27;20435;-77
2023/08/06 04:19:45;;;;;;;5.35;2.63;;;;;;;;;;5092082;28;20022;-77
2023/08/06 04:22:11;;;;;;;3.40;2.65;;;;;;;;;;5094738;28;20031;-77
2023/08/06 04:24:36;;;;;;;4.00;2.20;;;;;;;;;;5097022;28;21081;-78
2023/08/06 04:27:01;;;;;;;2.90;2.38;;;;;;;;;;5089070;27;20036;-77
2023/08/06 04:29:27;;;;;;;2.95;2.38;;;;;;;;;;5086226;28;20028;-77
2023/08/06 04:31:52;;;;;;;4.70;2.10;;;;;;;;;;5087859;27;20050;-76
2023/08/06 04:34:17;;;;;;;6.07;2.30;;;;;;;;;;5088617;28;20035;-77
2023/08/06 04:36:43;;;;;;;3.13;2.33;;;;;;;;;;5084833;28;20039;-78
2023/08/06 04:39:08;;;;;;;3.05;2.40;;;;;;;;;;5089018;28;20059;-77
2023/08/06 04:41:33;;;;;;;2.88;2.40;;;;;;;;;;5096512;28;20024;-78
2023/08/06 04:43:59;;;;;;;3.25;2.50;;;;;;;;;;5102238;27;20418;-77
2023/08/06 04:46:24;;;;;;;2.38;2.20;;;;;;;;;;5091122;28;20432;-78
2023/08/06 04:48:49;;;;;;;3.22;2.00;;;;;;;;;;5083317;28;20781;-77
2023/08/06 04:51:15;;;;;;;2.60;1.92;;;;;;;;;;5083607;28;20085;-78
2023/08/06 04:53:40;;;;;;;3.28;2.10;;;;;;;;;;5089035;28;20031;-77
2023/08/06 04:56:05;;;;;;;3.70;1.88;;;;;;;;;;5086428;28;20058;-77
2023/08/06 04:58:31;;;;;;;4.10;2.30;;;;;;;;;;5097814;28;20043;-76
2023/08/06 05:00:56;;;;;;;3.28;2.20;;;;;;;;;;5100003;28;20332;-77
2023/08/06 05:03:22;;;;;;;3.28;2.25;;;;;;;;;;5087424;27;20024;-77
2023/08/06 05:05:47;;;;;;;2.67;2.10;;;;;;;;;;5086683;28;20023;-78
2023/08/06 05:08:19;;;;;;;2.22;2.03;;;;;;;;;;5092014;27;20036;-77
2023/08/06 05:10:44;;;;;;;4.75;2.40;;;;;;;;;;5082841;28;20020;-77
2023/08/06 05:13:10;;;;;;;3.80;2.22;;;;;;;;;;5087239;28;20047;-76
2023/08/06 05:15:35;;;;;;;3.83;2.40;;;;;;;;;;5082829;28;21244;-76
2023/08/06 05:18:00;;;;;;;2.53;2.08;;;;;;;;;;5079310;28;20019;-77
2023/08/06 05:20:26;;;;;;;3.45;2.20;;;;;;;;;;5080808;28;20028;-76
2023/08/06 05:22:51;;;;;;;2.95;2.10;;;;;;;;;;5083685;28;20039;-77
2023/08/06 05:25:16;;;;;;;4.65;2.22;;;;;;;;;;5083313;28;20442;-77
2023/08/06 05:27:42;;;;;;;3.03;2.30;;;;;;;;;;5093815;28;20084;-77
2023/08/06 05:30:08;;;;;;;2.72;2.20;;;;;;;;;;5100428;28;20035;-76
2023/08/06 05:32:33;;;;;;;6.55;2.20;;;;;;;;;;5090934;28;20016;-77
2023/08/06 05:34:58;;;;;;;3.97;2.47;;;;;;;;;;5084310;28;20043;-77
2023/08/06 05:37:23;;;;;;;2.53;2.30;;;;;;;;;;5085717;28;20024;-76
2023/08/06 05:39:49;;;;;;;2.13;2.03;;;;;;;;;;5093252;28;20048;-76
2023/08/06 05:42:14;;;;;;;5.38;2.17;;;;;;;;;;5085075;28;20412;-77
2023/08/06 05:44:40;;;;;;;2.53;1.98;;;;;;;;;;5083555;28;20023;-75
2023/08/06 05:47:05;;;;;;;2.35;2.17;;;;;;;;;;5082057;28;20177;-75
2023/08/06 05:49:30;;;;;;;2.13;1.98;;;;;;;;;;5085997;28;20102;-77
2023/08/06 05:51:56;;;;;;;2.70;2.17;;;;;;;;;;5086368;28;20031;-77
2023/08/06 05:54:21;;;;;;;2.25;1.95;;;;;;;;;;5083790;28;20028;-72
2023/08/06 05:56:47;;;;;;;2.00;1.90;;;;;;;;;;5093146;28;20024;-76
2023/08/06 05:59:12;;;;;;;2.25;1.75;;;;;;;;;;5100839;28;20063;-74
2023/08/06 06:01:37;;;;;;;2.25;2.10;;;;;;;;;;5091416;28;20032;-76
2023/08/06 06:04:03;;;;;;;2.88;2.08;;;;;;;;;;5087854;27;20038;-76
2023/08/06 06:06:28;;;;;;;2.05;1.85;;;;;;;;;;5092279;28;20111;-76
2023/08/06 06:08:53;;;;;;;2.75;1.98;;;;;;;;;;5090090;28;20101;-76
2023/08/06 06:11:21;;;;;;;2.65;2.45;;;;;;;;;;5101116;28;20908;-75
2023/08/06 06:13:47;;;;;;;6.63;2.28;;;;;;;;;;5100433;28;20085;-78
2023/08/06 06:16:12;;;;;;;2.17;1.98;;;;;;;;;;5089754;28;20063;-75
2023/08/06 06:18:38;;;;;;;2.83;2.20;;;;;;;;;;5094542;28;20059;-78
2023/08/06 06:21:03;;;;;;;2.47;2.28;;;;;;;;;;5099132;28;20035;-78
2023/08/06 06:23:28;;;;;;;2.30;2.10;;;;;;;;;;5080257;28;20028;-77
2023/08/06 06:25:54;;;;;;;2.38;2.08;;;;;;;;;;5077583;28;20043;-77
2023/08/06 06:28:19;;;;;;;2.67;2.45;;;;;;;;;;5099805;28;20041;-77
2023/08/06 06:30:45;;;;;;;2.30;2.10;;;;;;;;;;5096593;28;20047;-80
2023/08/06 06:33:10;;;;;;;2.20;1.95;;;;;;;;;;5079442;28;20335;-77
2023/08/06 06:35:36;;;;;;;2.70;2.25;;;;;;;;;;5078507;28;20024;-78
2023/08/06 06:38:02;;;;;;;2.33;2.22;;;;;;;;;;5080628;28;20031;-78
2023/08/06 06:40:27;;;;;;;5.25;2.35;;;;;;;;;;5082156;28;20431;-78
2023/08/06 06:42:53;;;;;;;2.33;2.22;;;;;;;;;;5098712;28;20042;-78
2023/08/06 06:45:18;;;;;;;3.60;2.53;;;;;;;;;;5100839;28;20039;-78
2023/08/06 06:47:43;;;;;;;2.33;2.22;;;;;;;;;;5100262;28;20023;-77
2023/08/06 06:50:09;;;;;;;5.28;2.65;;;;;;;;;;5077710;28;20028;-78
2023/08/06 06:52:34;;;;;;;3.10;2.60;;;;;;;;;;5078844;28;20032;-80
2023/08/06 06:55:00;;;;;;;2.72;2.53;;;;;;;;;;5082625;28;20480;-79
2023/08/06 06:57:25;;;;;;;2.33;2.22;;;;;;;;;;5080291;28;20020;-81
2023/08/06 06:59:50;;;;;;;2.85;2.65;;;;;;;;;;5081724;28;20036;-81
2023/08/06 07:02:16;;;;;;;2.67;2.47;;;;;;;;;;5082716;28;20020;-78
2023/08/06 07:04:41;;;;;;;2.92;2.65;;;;;;;;;;5079557;28;20063;-76
2023/08/06 07:07:07;;;;;;;3.20;2.90;;;;;;;;;;5080754;28;20474;-77
2023/08/06 07:09:32;;;;;;;2.58;2.38;;;;;;;;;;5079982;28;20437;-76
2023/08/06 07:11:57;;;;;;;4.95;2.20;;;;;;;;;;5075944;28;20105;-77
2023/08/06 07:14:24;;;;;;;2.53;2.33;;;;;;;;;;5080794;28;20039;-77
2023/08/06 07:16:49;;;;;;;2.60;2.40;;;;;;;;;;5086154;28;20020;-74
2023/08/06 07:19:15;;;;;;;2.85;2.65;;;;;;;;;;5090442;27;20027;-74
2023/08/06 07:21:40;;;;;;;3.28;3.00;;;;;;;;;;5101080;28;20023;-76
2023/08/06 07:24:05;;;;;;;3.08;2.88;;;;;;;;;;5094692;28;20024;-75
2023/08/06 07:26:31;;;;;;;3.25;3.05;;;;;;;;;;5095951;28;20028;-75
2023/08/06 07:28:56;;;;;;;4.40;3.03;;;;;;;;;;5084501;28;20833;-76
2023/08/06 07:31:21;;;;;;;3.38;3.08;;;;;;;;;;5096147;28;20057;-75
2023/08/06 07:33:47;;;;;;;3.63;3.33;;;;;;;;;;5098301;28;20435;-75
2023/08/06 07:36:13;;;;;;;3.70;3.40;;;;;;;;;;5087365;28;20028;-75
2023/08/06 07:38:38;;;;;;;4.30;3.40;;;;;;;;;;5087549;27;20051;-74
2023/08/06 07:41:04;;;;;;;5.13;3.30;;;;;;;;;;5086475;28;20020;-77
2023/08/06 07:43:30;;;;;;;3.40;3.20;;;;;;;;;;5085827;27;20495;-74
2023/08/06 07:45:57;;;;;;;3.08;2.88;;;;;;;;;;5088160;27;20020;-76
2023/08/06 07:48:23;;;;;;;3.45;3.17;;;;;;;;;;5084152;28;20634;-76
2023/08/06 07:50:53;;;;;;;3.00;2.70;;;;;;;;;;5086698;28;20039;-76
2023/08/06 07:53:19;;;;;;;3.28;2.97;;;;;;;;;;5086413;28;20489;-72
2023/08/06 07:55:47;;;;;;;3.75;3.45;;;;;;;;;;5081868;28;20031;-75
2023/08/06 07:58:12;;;;;;;3.70;3.40;;;;;;;;;;5089193;28;20435;-77
2023/08/06 08:00:38;;;;;;;3.65;3.35;;;;;;;;;;5089933;28;20034;-77
2023/08/06 08:03:04;;;;;;;4.97;3.75;;;;;;;;;;5097837;27;20015;-75
2023/08/06 08:05:30;;;;;;;3.72;3.38;;;;;;;;;;5103864;28;20030;-72
2023/08/06 08:07:55;;;;;;;4.20;3.80;;;;;;;;;;5099787;28;20016;-71
2023/08/06 08:10:20;;;;;;;3.33;3.08;;;;;;;;;;5103575;28;20033;-72
2023/08/06 08:12:47;;;;;;;4.97;4.15;;;;;;;;;;5104264;28;20023;-70
2023/08/06 08:15:12;;;;;;;4.05;3.58;;;;;;;;;;5103637;28;20609;-74
2023/08/06 08:17:38;;;;;;;4.07;3.22;;;;;;;;;;5087961;27;20143;-72
2023/08/06 08:20:03;;;;;;;5.03;3.47;;;;;;;;;;5091658;27;20089;-74
2023/08/06 08:22:30;;;;;;;3.78;3.47;;;;;;;;;;5094828;27;20035;-74
2023/08/06 08:24:55;;;;;;;3.53;3.22;;;;;;;;;;5101851;28;20033;-73
2023/08/06 08:27:20;;;;;;;3.53;3.33;;;;;;;;;;5097523;28;20159;-73
2023/08/06 08:29:46;;;;;;;3.92;3.58;;;;;;;;;;5086975;28;20470;-73
2023/08/06 08:32:11;;;;;;;3.50;3.30;;;;;;;;;;5100148;27;20961;-74
2023/08/06 08:34:36;;;;;;;4.97;3.63;;;;;;;;;;5095613;28;20465;-75
2023/08/06 08:37:02;;;;;;;3.30;3.10;;;;;;;;;;5099805;28;20436;-73
2023/08/06 08:39:27;;;;;;;2.75;2.60;;;;;;;;;;5100023;28;20113;-74
2023/08/06 08:41:53;;;;;;;3.10;2.80;;;;;;;;;;5095865;28;20106;-75
2023/08/06 08:44:18;;;;;;;4.40;3.45;;;;;;;;;;5097451;28;20443;-75
2023/08/06 08:46:43;;;;;;;5.68;3.45;;;;;;;;;;5092715;28;20724;-75
2023/08/06 08:49:10;;;;;;;3.10;2.90;;;;;;;;;;5092602;28;20028;-73
2023/08/06 08:51:36;;;;;;;3.80;3.50;;;;;;;;;;5097155;27;20035;-75
2023/08/06 08:54:04;;;;;;;4.03;3.72;;;;;;;;;;5091562;28;20023;-74
2023/08/06 08:56:30;;;;;;;4.07;3.67;;;;;;;;;;5085872;27;20114;-73
2023/08/06 08:58:56;;;;;;;4.70;3.60;;;;;;;;;;5094535;28;20162;-74
2023/08/06 09:01:25;;;;;;;4.05;3.75;;;;;;;;;;5094132;28;20060;-73
2023/08/06 09:03:51;;;;;;;3.85;3.50;;;;;;;;;;5097203;28;20108;-73
2023/08/06 09:06:17;;;;;;;4.20;3.90;;;;;;;;;;5087068;27;20066;-75
2023/08/06 09:08:46;;;;;;;4.38;3.75;;;;;;;;;;5085525;27;20459;-76
2023/08/06 09:11:12;;;;;;;3.95;3.50;;;;;;;;;;5079039;28;20123;-74
2023/08/06 09:13:38;;;;;;;4.10;3.75;;;;;;;;;;5083331;27;20416;-74
2023/08/06 09:16:03;;;;;;;4.30;4.00;;;;;;;;;;5092340;28;20370;-74
2023/08/06 09:18:31;;;;;;;3.97;3.58;;;;;;;;;;5095302;28;20052;-72
2023/08/06 09:20:57;;;;;;;4.22;3.83;;;;;;;;;;5097437;28;20084;-73
2023/08/06 09:23:30;;;;;;;4.82;4.43;;;;;;;;;;5098098;28;20054;-74
2023/08/06 09:25:56;;;;;;;4.70;3.88;;;;;;;;;;5099198;28;20020;-80
2023/08/06 09:28:21;;;;;;;4.22;3.85;;;;;;;;;;5095948;28;20032;-73
2023/08/06 09:30:48;;;;;;;4.40;4.10;;;;;;;;;;5097656;28;20024;-73
2023/08/06 09:33:17;;;;;;;4.03;3.60;;;;;;;;;;5095111;28;20040;-75
2023/08/06 09:35:42;;;;;;;4.10;3.70;;;;;;;;;;5097697;28;20059;-73
2023/08/06 09:38:10;;;;;;;4.93;4.22;;;;;;;;;;5099109;28;20050;-73
2023/08/06 09:40:35;;;;;;;4.72;4.32;;;;;;;;;;5099332;28;20146;-76
2023/08/06 09:43:01;;;;;;;5.13;4.68;;;;;;;;;;5094143;28;20107;-76
2023/08/06 09:45:30;;;;;;;5.68;4.70;;;;;;;;;;5099101;28;20031;-77
2023/08/06 09:47:55;;;;;;;4.38;4.07;;;;;;;;;;5099080;28;20088;-77
2023/08/06 09:50:21;;;;;;;4.75;4.35;;;;;;;;;;5091408;28;20027;-74
2023/08/06 09:52:47;;;;;;;4.38;4.05;;;;;;;;;;5080724;28;20165;-75
2023/08/06 09:55:13;;;;;;;4.80;4.50;;;;;;;;;;5082621;28;20457;-78
2023/08/06 09:57:42;;;;;;;4.72;4.30;;;;;;;;;;5080210;28;20020;-76
2023/08/06 10:00:09;;;;;;;4.20;3.90;;;;;;;;;;5079097;28;20027;-75
2023/08/06 10:02:35;;;;;;;4.78;4.43;;;;;;;;;;5080911;28;20035;-74
2023/08/06 10:05:01;;;;;;;4.70;4.30;;;;;;;;;;5082585;27;20024;-77
2023/08/06 10:07:27;;;;;;;5.00;4.60;;;;;;;;;;5098665;28;20044;-76
2023/08/06 10:09:52;;;;;;;4.28;3.92;;;;;;;;;;5093122;28;20404;-75
2023/08/06 10:12:19;;;;;;;4.50;4.18;;;;;;;;;;5081836;28;20434;-72
2023/08/06 10:14:45;;;;;;;4.22;3.92;;;;;;;;;;5097016;28;20024;-75
2023/08/06 10:17:11;;;;;;;4.75;4.38;;;;;;;;;;5098414;28;20030;-76
2023/08/06 10:19:37;;;;;;;5.50;3.95;;;;;;;;;;5092828;28;20099;-76
2023/08/06 10:22:13;;;;;;;5.35;4.85;;;;;;;;;;5098026;28;20063;-73
2023/08/06 10:24:51;;;;;;;4.47;4.18;;;;;;;;;;5099028;28;20119;-71
2023/08/06 10:27:28;;;;;;;5.45;5.05;;;;;;;;;;5087576;28;20026;-71
2023/08/06 10:29:54;;;;;;;4.80;4.40;;;;;;;;;;5098397;28;20027;-72
2023/08/06 10:32:19;;;;;;;5.60;4.57;;;;;;;;;;5088501;28;20035;-73
2023/08/06 10:34:57;;;;;;;5.03;4.63;;;;;;;;;;5089540;28;20032;-74
2023/08/06 10:37:23;;;;;;;4.75;4.45;;;;;;;;;;5096957;28;20023;-73
2023/08/06 10:39:52;;;;;;;11.30;5.97;;;;;;;;;;5095377;28;20052;-74
2023/08/06 10:42:27;;;;;;;5.60;5.20;;;;;;;;;;5096853;28;20023;-72
2023/08/06 10:45:24;;;;;;;5.57;4.63;;;;;;;;;;5087627;28;20157;-73
2023/08/06 10:47:49;;;;;;;5.43;4.93;;;;;;;;;;5037799;28;20133;-73
2023/08/06 10:50:16;;;;;;;5.47;4.75;;;;;;;;;;5026069;28;20045;-72
2023/08/06 10:52:42;;;;;;;4.90;4.20;;;;;;;;;;5035803;28;20037;-73
2023/08/06 10:55:09;;;;;;;4.97;4.15;;;;;;;;;;5037203;28;20346;-72
2023/08/06 10:57:34;;;;;;;4.50;4.10;;;;;;;;;;5039811;28;20079;-73
2023/08/06 10:59:59;;;;;;;4.82;4.43;;;;;;;;;;5029031;28;20510;-72
2023/08/06 11:02:25;;;;;;;4.70;4.35;;;;;;;;;;5026686;28;20036;-73
2023/08/06 11:04:50;;;;;;;4.57;4.18;;;;;;;;;;5022202;28;20052;-75
2023/08/06 11:07:17;;;;;;;4.85;4.40;;;;;;;;;;5024444;28;20079;-73
2023/08/06 11:09:42;;;;;;;6.10;4.53;;;;;;;;;;5023978;28;20032;-73
2023/08/06 11:12:11;;;;;;;4.40;4.00;;;;;;;;;;5025816;28;20044;-72
2023/08/06 11:14:36;;;;;;;4.78;4.38;;;;;;;;;;5022678;28;20468;-75
2023/08/06 11:17:02;;;;;;;4.65;4.28;;;;;;;;;;5025548;28;20080;-74
2023/08/06 11:19:27;;;;;;;5.53;4.50;;;;;;;;;;5024029;28;20087;-74
2023/08/06 11:21:53;;;;;;;5.55;5.03;;;;;;;;;;5025765;28;20060;-73
2023/08/06 11:24:18;;;;;;;7.25;6.55;;;;;;;;;;5059581;28;20517;-73
2023/08/06 11:26:44;;;;;;;7.22;6.72;;;;;;;;;;5098223;28;20028;-72
2023/08/06 11:29:09;;;;;;;14.65;13.25;;;;;;;;;;5083333;28;20027;-73
2023/08/06 11:31:35;;;;;;;9.13;8.40;;;;;;;;;;5080424;28;20030;-71
2023/08/06 11:34:01;;;;;;;10.13;8.15;;;;;;;;;;5082830;28;20024;-71
2023/08/06 11:36:30;;;;;;;8.27;7.47;;;;;;;;;;5080398;28;20417;-74
2023/08/06 11:38:56;;;;;;;10.77;9.15;;;;;;;;;;5081108;28;20478;-73
2023/08/06 11:41:21;;;;;;;9.50;8.05;;;;;;;;;;5085362;28;20033;-76
2023/08/06 11:43:47;;;;;;;8.55;7.75;;;;;;;;;;5099088;28;20038;-73
2023/08/06 11:46:12;;;;;;;9.07;8.20;;;;;;;;;;5089799;28;20020;-74
2023/08/06 11:48:50;;;;;;;9.43;8.73;;;;;;;;;;5088333;28;20034;-74
2023/08/06 11:51:16;;;;;;;9.13;8.03;;;;;;;;;;5086826;28;20047;-74
2023/08/06 11:53:41;;;;;;;8.65;7.95;;;;;;;;;;5083420;28;20020;-73
2023/08/06 11:56:06;;;;;;;9.32;8.55;;;;;;;;;;5076631;28;20043;-74
2023/08/06 11:58:32;;;;;;;9.50;8.70;;;;;;;;;;5082052;28;20431;-75
2023/08/06 12:00:58;;;;;;;8.30;7.70;;;;;;;;;;5096234;28;20034;-75
2023/08/06 12:03:27;;;;;;;9.20;8.30;;;;;;;;;;5078181;28;20032;-74
2023/08/06 12:05:53;;;;;;;9.15;7.57;;;;;;;;;;5103527;28;20034;-74
2023/08/06 12:08:19;;;;;;;8.27;7.57;;;;;;;;;;5103473;28;20023;-74
2023/08/06 12:10:46;;;;;;;8.40;7.80;;;;;;;;;;5101002;27;20076;-74
2023/08/06 12:13:12;;;;;;;8.27;7.57;;;;;;;;;;5081002;27;20056;-74
2023/08/06 12:15:38;;;;;;;7.75;7.15;;;;;;;;;;5080779;28;20085;-73
2023/08/06 12:18:03;;;;;;;7.22;6.72;;;;;;;;;;5086297;28;20040;-74
2023/08/06 12:20:28;;;;;;;7.63;7.10;;;;;;;;;;5081726;28;20076;-73
2023/08/06 12:22:54;;;;;;;7.88;7.28;;;;;;;;;;5092537;28;20296;-74
2023/08/06 12:25:19;;;;;;;7.53;6.93;;;;;;;;;;5102712;27;20343;-71
2023/08/06 12:27:45;;;;;;;8.35;7.55;;;;;;;;;;5102070;28;20027;-74
2023/08/06 12:30:11;;;;;;;7.72;6.97;;;;;;;;;;5101370;28;20114;-74
2023/08/06 12:32:37;;;;;;;7.60;7.00;;;;;;;;;;5086431;28;20039;-74
2023/08/06 12:35:03;;;;;;;6.25;5.82;;;;;;;;;;5096814;28;20051;-75
2023/08/06 12:37:28;;;;;;;7.45;6.85;;;;;;;;;;5088011;28;20068;-75
2023/08/06 12:39:53;;;;;;;6.88;6.32;;;;;;;;;;5101156;28;20090;-74
2023/08/06 12:42:19;;;;;;;6.78;6.28;;;;;;;;;;5095360;28;20027;-74
2023/08/06 12:44:45;;;;;;;6.70;6.20;;;;;;;;;;5081648;28;20556;-74
2023/08/06 12:47:11;;;;;;;7.30;6.60;;;;;;;;;;5085036;28;20032;-75
2023/08/06 12:49:36;;;;;;;7.55;6.80;;;;;;;;;;5080355;27;20023;-74
2023/08/06 12:52:02;;;;;;;6.72;6.20;;;;;;;;;;5079870;28;20070;-77
2023/08/06 12:54:28;;;;;;;7.05;6.00;;;;;;;;;;5082765;28;20053;-78
2023/08/06 12:56:53;;;;;;;6.85;6.28;;;;;;;;;;5087501;27;20023;-82
2023/08/06 12:59:18;;;;;;;7.93;7.32;;;;;;;;;;5089813;27;20336;-75
2023/08/06 13:01:44;;;;;;;7.20;6.70;;;;;;;;;;5086843;28;20028;-75
2023/08/06 13:04:10;;;;;;;8.20;7.60;;;;;;;;;;5086164;27;20028;-73
2023/08/06 13:06:36;;;;;;;7.75;7.15;;;;;;;;;;5087924;27;20406;-78
2023/08/06 13:09:08;;;;;;;8.25;7.60;;;;;;;;;;5089037;28;20107;-80
2023/08/06 13:11:34;;;;;;;7.82;7.13;;;;;;;;;;5087282;28;20055;-76
2023/08/06 13:14:10;;;;;;;8.50;7.70;;;;;;;;;;5091608;27;20047;-75
2023/08/06 13:16:36;;;;;;;7.60;7.00;;;;;;;;;;5083621;28;20061;-86
2023/08/06 13:19:01;;;;;;;8.15;7.45;;;;;;;;;;5086864;27;20019;-79
2023/08/06 13:21:32;;;;;;;7.32;6.72;;;;;;;;;;5090519;27;20027;-76
2023/08/06 13:23:57;;;;;;;8.93;8.02;;;;;;;;;;5090974;28;20031;-76
2023/08/06 13:26:22;;;;;;;9.23;8.43;;;;;;;;;;5088364;28;20458;-76
2023/08/06 13:28:49;;;;;;;8.00;7.40;;;;;;;;;;5058325;28;20068;-75
2023/08/06 13:31:14;;;;;;;9.90;9.15;;;;;;;;;;5069748;28;20019;-82
2023/08/06 13:33:40;;;;;;;10.63;9.80;;;;;;;;;;5068827;28;20025;-79
2023/08/06 13:36:05;;;;;;;10.43;9.52;;;;;;;;;;5061451;28;20027;-77
2023/08/06 13:38:31;;;;;;;8.25;7.65;;;;;;;;;;5063695;28;20138;-75
2023/08/06 13:40:56;;;;;;;8.10;7.40;;;;;;;;;;5059940;28;20067;-76
2023/08/06 13:43:22;;;;;;;8.10;7.50;;;;;;;;;;5063017;28;20407;-77
2023/08/06 13:45:47;;;;;;;8.35;7.65;;;;;;;;;;5064070;28;20028;-78
2023/08/06 13:48:12;;;;;;;8.63;7.93;;;;;;;;;;5061834;28;20060;-77
2023/08/06 13:50:38;;;;;;;7.05;6.53;;;;;;;;;;5075585;28;20142;-76
2023/08/06 13:53:03;;;;;;;8.02;7.22;;;;;;;;;;5062618;28;20051;-76
2023/08/06 13:55:29;;;;;;;7.05;6.32;;;;;;;;;;5062950;28;20027;-77
2023/08/06 13:57:54;;;;;;;6.50;5.63;;;;;;;;;;5067451;28;20086;-78
2023/08/06 14:00:19;;;;;;;6.32;5.75;;;;;;;;;;5070607;28;20030;-78
2023/08/06 14:02:45;;;;;;;5.65;5.25;;;;;;;;;;5065474;28;20098;-78
2023/08/06 14:05:10;;;;;;;6.75;6.15;;;;;;;;;;5068341;28;20059;-77
2023/08/06 14:07:36;;;;;;;5.95;5.45;;;;;;;;;;5065916;28;20024;-74
2023/08/06 14:10:01;;;;;;;5.80;5.30;;;;;;;;;;5076253;28;20050;-71
2023/08/06 14:12:26;;;;;;;7.00;6.40;;;;;;;;;;5079535;28;20063;-73
2023/08/06 14:14:52;;;;;;;6.88;6.13;;;;;;;;;;5070806;28;20031;-73
2023/08/06 14:17:17;;;;;;;7.35;6.75;;;;;;;;;;5063894;28;20020;-73
2023/08/06 14:19:43;;;;;;;6.88;6.28;;;;;;;;;;5063499;28;20068;-72
2023/08/06 14:22:08;;;;;;;7.47;6.88;;;;;;;;;;5062892;28;20058;-76
2023/08/06 14:24:33;;;;;;;7.70;6.88;;;;;;;;;;5061715;28;20024;-75
2023/08/06 14:26:59;;;;;;;6.85;6.25;;;;;;;;;;5061942;28;20023;-77
2023/08/06 14:29:24;;;;;;;7.25;6.55;;;;;;;;;;5063019;28;20507;-76
2023/08/06 14:31:50;;;;;;;6.72;6.03;;;;;;;;;;5064563;28;20024;-75
2023/08/06 14:34:16;;;;;;;6.35;5.75;;;;;;;;;;5062407;28;20020;-76
2023/08/06 14:36:41;;;;;;;6.07;5.57;;;;;;;;;;5061376;28;20024;-76